Time;durP1;ratioP1;P1;durP2;ratioP2;P2;SDS_P1;SDS_P2;PMS_P1;PMS_P2;Temp;Humidity;BMP_temperature;BMP_pressure;BME280_temperature;BME280_humidity;BME280_pressure;Samples;Min_cycle;Max_cycle;Signal;HPM_P1;HPM_P2
2023/05/24 00:00:39;;;;;;;6.03;4.15;;;;;;;;;;5019494;28;20937;-68
2023/05/24 00:03:05;;;;;;;5.45;4.40;;;;;;;;;;5017000;28;20857;-68
2023/05/24 00:05:31;;;;;;;5.22;4.38;;;;;;;;;;5010973;28;20172;-67
2023/05/24 00:07:58;;;;;;;6.63;4.28;;;;;;;;;;5012170;28;20132;-67
2023/05/24 00:10:24;;;;;;;5.03;4.53;;;;;;;;;;5017494;28;20049;-67
2023/05/24 00:12:50;;;;;;;6.20;4.30;;;;;;;;;;5013124;28;20129;-66
2023/05/24 00:15:16;;;;;;;8.20;4.38;;;;;;;;;;5005271;28;20148;-67
2023/05/24 00:17:41;;;;;;;5.05;4.25;;;;;;;;;;5019674;28;20052;-68
2023/05/24 00:20:11;;;;;;;10.50;4.88;;;;;;;;;;5034409;28;20529;-68
2023/05/24 00:22:40;;;;;;;5.45;4.63;;;;;;;;;;5006624;28;20533;-66
2023/05/24 00:25:06;;;;;;;4.85;4.38;;;;;;;;;;5013813;28;20415;-67
2023/05/24 00:27:32;;;;;;;7.47;4.55;;;;;;;;;;5014213;28;20248;-68
2023/05/24 00:29:58;;;;;;;5.40;4.53;;;;;;;;;;5035764;28;20114;-68
2023/05/24 00:32:23;;;;;;;6.20;4.57;;;;;;;;;;5013602;28;20450;-68
2023/05/24 00:34:49;;;;;;;6.30;4.43;;;;;;;;;;5018254;28;20449;-67
2023/05/24 00:37:14;;;;;;;5.45;4.45;;;;;;;;;;5012569;28;20442;-68
2023/05/24 00:39:42;;;;;;;5.10;4.43;;;;;;;;;;5026335;28;20050;-67
2023/05/24 00:42:08;;;;;;;6.57;4.32;;;;;;;;;;5018334;28;20053;-68
2023/05/24 00:44:34;;;;;;;6.53;4.35;;;;;;;;;;5010807;28;20548;-67
2023/05/24 00:46:59;;;;;;;6.40;4.72;;;;;;;;;;5014635;28;20049;-68
2023/05/24 00:49:25;;;;;;;5.97;4.60;;;;;;;;;;5013437;28;20046;-66
2023/05/24 00:51:52;;;;;;;7.78;5.25;;;;;;;;;;5013198;28;20676;-68
2023/05/24 00:54:18;;;;;;;6.45;4.43;;;;;;;;;;5019638;28;20099;-67
2023/05/24 00:56:43;;;;;;;6.28;5.40;;;;;;;;;;5020101;28;20045;-67
2023/05/24 00:59:09;;;;;;;6.25;4.80;;;;;;;;;;5017457;28;20053;-65
2023/05/24 01:01:36;;;;;;;6.10;5.15;;;;;;;;;;5013829;28;20382;-65
2023/05/24 01:04:02;;;;;;;6.97;5.45;;;;;;;;;;5018235;28;20056;-68
2023/05/24 01:06:31;;;;;;;5.18;4.63;;;;;;;;;;5015168;28;20112;-66
2023/05/24 01:09:20;;;;;;;6.20;5.25;;;;;;;;;;5007360;28;20080;-68
2023/05/24 01:12:18;;;;;;;5.45;4.85;;;;;;;;;;5020574;28;20053;-66
2023/05/24 01:15:17;;;;;;;7.43;5.45;;;;;;;;;;5038883;28;20045;-67
2023/05/24 01:17:54;;;;;;;6.63;5.00;;;;;;;;;;5021690;28;20053;-66
2023/05/24 01:20:22;;;;;;;5.80;4.72;;;;;;;;;;5015832;28;21110;-67
2023/05/24 01:23:23;;;;;;;6.65;5.10;;;;;;;;;;5036363;28;20136;-68
2023/05/24 01:26:23;;;;;;;5.25;4.63;;;;;;;;;;5021220;28;20513;-67
2023/05/24 01:28:50;;;;;;;5.63;4.60;;;;;;;;;;5013060;28;20045;-67
2023/05/24 01:31:17;;;;;;;5.97;4.93;;;;;;;;;;5034433;28;20088;-66
2023/05/24 01:33:43;;;;;;;6.95;4.88;;;;;;;;;;5013014;28;20055;-67
2023/05/24 01:36:09;;;;;;;7.53;4.47;;;;;;;;;;5017407;28;20057;-66
2023/05/24 01:38:36;;;;;;;5.50;4.53;;;;;;;;;;5013914;28;20172;-68
2023/05/24 01:41:14;;;;;;;6.03;4.95;;;;;;;;;;5021163;28;20041;-67
2023/05/24 01:43:44;;;;;;;8.73;4.90;;;;;;;;;;5014878;28;20088;-67
2023/05/24 01:46:28;;;;;;;6.32;5.05;;;;;;;;;;5013224;28;20050;-67
2023/05/24 01:49:02;;;;;;;6.07;4.68;;;;;;;;;;5022599;28;20049;-68
2023/05/24 01:51:37;;;;;;;6.97;5.03;;;;;;;;;;5015468;28;20050;-67
2023/05/24 01:54:05;;;;;;;8.00;5.25;;;;;;;;;;5014797;28;20045;-66
2023/05/24 01:56:34;;;;;;;5.30;4.75;;;;;;;;;;5023588;28;20402;-68
2023/05/24 01:59:01;;;;;;;5.40;4.68;;;;;;;;;;5016365;28;20514;-66
2023/05/24 02:01:28;;;;;;;4.97;4.47;;;;;;;;;;5036056;28;20057;-66
2023/05/24 02:03:54;;;;;;;7.72;4.85;;;;;;;;;;5021811;28;20057;-66
2023/05/24 02:06:19;;;;;;;9.02;5.00;;;;;;;;;;5038000;28;20056;-67
2023/05/24 02:08:45;;;;;;;6.53;4.93;;;;;;;;;;5012144;28;20046;-68
2023/05/24 02:11:10;;;;;;;8.05;4.82;;;;;;;;;;5021183;28;20468;-66
2023/05/24 02:13:37;;;;;;;5.18;4.65;;;;;;;;;;5020828;28;20102;-67
2023/05/24 02:16:03;;;;;;;5.53;4.57;;;;;;;;;;5030943;28;20050;-67
2023/05/24 02:18:33;;;;;;;6.70;4.40;;;;;;;;;;5014717;28;20085;-68
2023/05/24 02:21:00;;;;;;;4.93;4.38;;;;;;;;;;5021107;28;20137;-67
2023/05/24 02:23:26;;;;;;;5.22;4.65;;;;;;;;;;5013346;28;20081;-67
2023/05/24 02:25:52;;;;;;;5.55;4.35;;;;;;;;;;5011938;28;20530;-67
2023/05/24 02:28:17;;;;;;;7.57;4.50;;;;;;;;;;5015966;28;20479;-67
2023/05/24 02:30:43;;;;;;;7.05;4.25;;;;;;;;;;5037095;28;20064;-66
2023/05/24 02:33:10;;;;;;;6.90;4.65;;;;;;;;;;5018205;28;20065;-67
2023/05/24 02:35:35;;;;;;;6.00;4.53;;;;;;;;;;5035745;28;20402;-67
2023/05/24 02:38:02;;;;;;;5.85;4.30;;;;;;;;;;5014861;28;20037;-67
2023/05/24 02:40:28;;;;;;;5.63;4.20;;;;;;;;;;5018648;28;20554;-67
2023/05/24 02:42:53;;;;;;;5.45;4.22;;;;;;;;;;5036979;28;20127;-68
2023/05/24 02:45:19;;;;;;;4.97;4.40;;;;;;;;;;5019884;28;20049;-67
2023/05/24 02:47:45;;;;;;;5.78;4.72;;;;;;;;;;5017610;28;20116;-66
2023/05/24 02:50:11;;;;;;;4.95;4.40;;;;;;;;;;5016763;28;20486;-67
2023/05/24 02:52:36;;;;;;;9.95;5.00;;;;;;;;;;5014410;28;20051;-68
2023/05/24 02:55:02;;;;;;;6.88;4.85;;;;;;;;;;5036839;28;20502;-67
2023/05/24 02:57:27;;;;;;;5.75;4.70;;;;;;;;;;5016893;28;20667;-66
2023/05/24 02:59:54;;;;;;;5.22;4.30;;;;;;;;;;5017446;28;20072;-67
2023/05/24 03:02:20;;;;;;;5.60;4.57;;;;;;;;;;5020094;28;20169;-67
2023/05/24 03:04:46;;;;;;;5.47;4.65;;;;;;;;;;5036332;28;20507;-67
2023/05/24 03:07:13;;;;;;;5.10;4.60;;;;;;;;;;5015913;28;20084;-67
2023/05/24 03:09:39;;;;;;;6.50;4.53;;;;;;;;;;5035459;28;20077;-67
2023/05/24 03:12:05;;;;;;;6.57;4.53;;;;;;;;;;5017263;28;20046;-67
2023/05/24 03:14:32;;;;;;;4.22;3.80;;;;;;;;;;5035185;28;20185;-67
2023/05/24 03:16:57;;;;;;;6.22;5.38;;;;;;;;;;5018569;28;20053;-66
2023/05/24 03:19:23;;;;;;;5.47;4.60;;;;;;;;;;5017203;28;20079;-67
2023/05/24 03:21:48;;;;;;;6.28;4.82;;;;;;;;;;5008320;28;20140;-66
2023/05/24 03:24:14;;;;;;;7.88;5.18;;;;;;;;;;5017085;28;20053;-66
2023/05/24 03:26:39;;;;;;;7.05;5.15;;;;;;;;;;5011409;28;20156;-68
2023/05/24 03:29:06;;;;;;;5.38;4.88;;;;;;;;;;5036063;28;20045;-68
2023/05/24 03:31:35;;;;;;;6.40;4.63;;;;;;;;;;5034639;28;20042;-67
2023/05/24 03:34:01;;;;;;;7.47;5.18;;;;;;;;;;5035969;28;20060;-66
2023/05/24 03:36:28;;;;;;;6.55;5.00;;;;;;;;;;5034606;28;20107;-67
2023/05/24 03:38:56;;;;;;;8.02;5.25;;;;;;;;;;5036477;28;20049;-68
2023/05/24 03:41:22;;;;;;;6.38;4.88;;;;;;;;;;5034828;28;20045;-67
2023/05/24 03:43:48;;;;;;;10.55;5.43;;;;;;;;;;5013469;28;20107;-68
2023/05/24 03:46:15;;;;;;;7.38;5.32;;;;;;;;;;5035137;28;20052;-66
2023/05/24 03:48:41;;;;;;;7.63;5.50;;;;;;;;;;5034563;28;20033;-66
2023/05/24 03:51:08;;;;;;;7.63;5.63;;;;;;;;;;5018763;28;20394;-65
2023/05/24 03:53:33;;;;;;;8.50;5.93;;;;;;;;;;5034229;28;20059;-68
2023/05/24 03:55:59;;;;;;;7.45;6.07;;;;;;;;;;5033764;28;20045;-67
2023/05/24 03:58:24;;;;;;;9.75;6.22;;;;;;;;;;5016060;28;20049;-67
2023/05/24 04:00:50;;;;;;;9.90;5.57;;;;;;;;;;5011695;28;20853;-67
2023/05/24 04:03:18;;;;;;;9.95;6.07;;;;;;;;;;5011311;28;20112;-66
2023/05/24 04:05:44;;;;;;;9.45;6.32;;;;;;;;;;5018546;28;20056;-67
2023/05/24 04:08:11;;;;;;;7.55;6.20;;;;;;;;;;5007599;28;20955;-68
2023/05/24 04:10:37;;;;;;;8.18;5.40;;;;;;;;;;5016072;28;20050;-67
2023/05/24 04:13:02;;;;;;;7.25;5.72;;;;;;;;;;5035545;28;20053;-66
2023/05/24 04:15:28;;;;;;;6.57;5.38;;;;;;;;;;5014241;28;20119;-67
2023/05/24 04:17:54;;;;;;;7.30;5.43;;;;;;;;;;5013281;28;20042;-68
2023/05/24 04:20:24;;;;;;;7.45;5.85;;;;;;;;;;5012034;28;20120;-68
2023/05/24 04:22:53;;;;;;;7.70;5.82;;;;;;;;;;5032885;28;20136;-68
2023/05/24 04:25:19;;;;;;;7.40;5.55;;;;;;;;;;5027263;28;20056;-68
2023/05/24 04:27:47;;;;;;;7.10;6.03;;;;;;;;;;5012425;28;20598;-68
2023/05/24 04:30:15;;;;;;;7.80;5.50;;;;;;;;;;5032794;28;20041;-68
2023/05/24 04:32:44;;;;;;;8.13;6.18;;;;;;;;;;5018229;28;20050;-68
2023/05/24 04:35:10;;;;;;;8.68;5.75;;;;;;;;;;5013226;28;20056;-68
2023/05/24 04:37:36;;;;;;;11.43;5.50;;;;;;;;;;5024475;28;20060;-67
2023/05/24 04:40:05;;;;;;;6.35;5.10;;;;;;;;;;5015743;28;20037;-68
2023/05/24 04:42:30;;;;;;;7.75;5.05;;;;;;;;;;5011353;28;20092;-69
2023/05/24 04:44:56;;;;;;;6.07;4.85;;;;;;;;;;5011823;28;20073;-67
2023/05/24 04:47:23;;;;;;;7.50;5.00;;;;;;;;;;5006068;28;20064;-71
2023/05/24 04:49:48;;;;;;;6.32;5.50;;;;;;;;;;5015704;28;20838;-68
2023/05/24 04:52:15;;;;;;;6.93;5.20;;;;;;;;;;5007038;28;20144;-69
2023/05/24 04:54:40;;;;;;;5.90;5.03;;;;;;;;;;5013043;28;20080;-67
2023/05/24 04:57:06;;;;;;;6.03;4.90;;;;;;;;;;5016981;28;20476;-68
2023/05/24 04:59:31;;;;;;;5.82;4.68;;;;;;;;;;5015315;28;20049;-68
2023/05/24 05:01:56;;;;;;;8.55;5.30;;;;;;;;;;5019597;28;20073;-69
2023/05/24 05:04:22;;;;;;;5.70;4.90;;;;;;;;;;5017019;28;20133;-68
2023/05/24 05:06:47;;;;;;;5.50;4.78;;;;;;;;;;5016366;28;20054;-68
2023/05/24 05:09:14;;;;;;;5.13;4.30;;;;;;;;;;5016243;28;20046;-69
2023/05/24 05:11:40;;;;;;;6.10;4.82;;;;;;;;;;5018291;28;20526;-69
2023/05/24 05:14:08;;;;;;;5.20;4.70;;;;;;;;;;5019537;28;20049;-69
2023/05/24 05:16:34;;;;;;;7.00;5.25;;;;;;;;;;5017539;28;20053;-70
2023/05/24 05:19:00;;;;;;;5.25;4.65;;;;;;;;;;5014235;28;20105;-70
2023/05/24 05:21:26;;;;;;;8.75;5.18;;;;;;;;;;5010860;28;20398;-69
2023/05/24 05:23:53;;;;;;;5.93;4.88;;;;;;;;;;5001157;28;20041;-70
2023/05/24 05:26:18;;;;;;;6.15;5.10;;;;;;;;;;5010703;28;20056;-69
2023/05/24 05:28:44;;;;;;;6.30;5.00;;;;;;;;;;5015848;28;20061;-68
2023/05/24 05:31:09;;;;;;;7.03;5.57;;;;;;;;;;5013784;28;20476;-68
2023/05/24 05:33:35;;;;;;;9.95;5.57;;;;;;;;;;5010488;28;20060;-68
2023/05/24 05:36:00;;;;;;;7.05;5.35;;;;;;;;;;5013668;28;20418;-68
2023/05/24 05:38:25;;;;;;;8.63;5.28;;;;;;;;;;5014815;28;20061;-68
2023/05/24 05:40:51;;;;;;;8.65;5.45;;;;;;;;;;5013852;28;20104;-67
2023/05/24 05:43:16;;;;;;;8.13;4.90;;;;;;;;;;5015419;28;20045;-68
2023/05/24 05:45:42;;;;;;;8.73;4.90;;;;;;;;;;5013276;28;20775;-67
2023/05/24 05:48:07;;;;;;;7.88;5.18;;;;;;;;;;5016103;28;20063;-68
2023/05/24 05:50:33;;;;;;;6.80;5.20;;;;;;;;;;5014011;28;20941;-68
2023/05/24 05:52:58;;;;;;;6.13;5.10;;;;;;;;;;5014395;28;20125;-69
2023/05/24 05:55:24;;;;;;;5.70;5.10;;;;;;;;;;5015080;28;20144;-68
2023/05/24 05:57:49;;;;;;;8.20;5.13;;;;;;;;;;5012612;28;20045;-69
2023/05/24 06:00:15;;;;;;;5.57;4.72;;;;;;;;;;5015232;28;20052;-68
2023/05/24 06:02:41;;;;;;;7.35;5.20;;;;;;;;;;5021042;28;20148;-69
2023/05/24 06:05:06;;;;;;;6.00;5.15;;;;;;;;;;5016642;28;20045;-69
2023/05/24 06:07:32;;;;;;;5.97;5.38;;;;;;;;;;5022269;28;20049;-69
2023/05/24 06:09:58;;;;;;;6.88;5.38;;;;;;;;;;5022900;28;20080;-69
2023/05/24 06:12:23;;;;;;;8.60;5.78;;;;;;;;;;5022466;28;20061;-70
2023/05/24 06:14:49;;;;;;;7.75;5.53;;;;;;;;;;5020495;28;20092;-68
2023/05/24 06:17:15;;;;;;;8.65;5.43;;;;;;;;;;5018594;28;20523;-68
2023/05/24 06:19:42;;;;;;;8.10;5.13;;;;;;;;;;5022213;28;20076;-68
2023/05/24 06:22:08;;;;;;;6.38;5.22;;;;;;;;;;5021923;28;20049;-68
2023/05/24 06:24:34;;;;;;;9.25;4.93;;;;;;;;;;5022354;28;20045;-68
2023/05/24 06:26:59;;;;;;;6.25;4.60;;;;;;;;;;5012270;28;20053;-68
2023/05/24 06:29:25;;;;;;;6.93;4.90;;;;;;;;;;5022163;28;20049;-68
2023/05/24 06:31:50;;;;;;;5.80;5.03;;;;;;;;;;5020082;28;20061;-68
2023/05/24 06:34:17;;;;;;;5.50;4.75;;;;;;;;;;5017724;28;20054;-69
2023/05/24 06:36:46;;;;;;;5.22;4.60;;;;;;;;;;5019717;28;20041;-69
2023/05/24 06:39:12;;;;;;;4.97;4.38;;;;;;;;;;5021324;28;20060;-67
2023/05/24 06:41:38;;;;;;;6.00;4.45;;;;;;;;;;5021365;28;20363;-68
2023/05/24 06:44:04;;;;;;;5.25;4.50;;;;;;;;;;5022118;28;20053;-68
2023/05/24 06:46:30;;;;;;;6.88;3.95;;;;;;;;;;5021594;28;20158;-68
2023/05/24 06:48:55;;;;;;;6.47;4.40;;;;;;;;;;5019848;28;20060;-68
2023/05/24 06:51:21;;;;;;;3.53;3.22;;;;;;;;;;5021885;28;20045;-68
2023/05/24 06:53:46;;;;;;;4.13;3.72;;;;;;;;;;5021351;28;20502;-70
2023/05/24 06:56:12;;;;;;;5.75;4.22;;;;;;;;;;5021623;28;20152;-69
2023/05/24 06:58:37;;;;;;;4.38;3.85;;;;;;;;;;5021364;28;20048;-69
2023/05/24 07:01:03;;;;;;;5.30;3.67;;;;;;;;;;5015879;28;20041;-69
2023/05/24 07:03:32;;;;;;;3.90;3.40;;;;;;;;;;5021183;28;20061;-69
2023/05/24 07:05:57;;;;;;;7.72;4.13;;;;;;;;;;5021771;28;20045;-69
2023/05/24 07:08:26;;;;;;;5.00;4.20;;;;;;;;;;5020757;28;20061;-69
2023/05/24 07:10:52;;;;;;;5.22;3.80;;;;;;;;;;5018974;28;20045;-69
2023/05/24 07:13:18;;;;;;;4.30;3.90;;;;;;;;;;5021332;28;20053;-69
2023/05/24 07:15:45;;;;;;;5.75;4.10;;;;;;;;;;5020168;28;20065;-70
2023/05/24 07:18:11;;;;;;;4.45;4.05;;;;;;;;;;5020312;28;20053;-68
2023/05/24 07:20:36;;;;;;;3.92;3.63;;;;;;;;;;5020547;28;20059;-69
2023/05/24 07:23:03;;;;;;;4.25;3.83;;;;;;;;;;5021280;28;20052;-68
2023/05/24 07:25:28;;;;;;;4.57;3.85;;;;;;;;;;5020789;28;20153;-70
2023/05/24 07:27:54;;;;;;;4.30;3.53;;;;;;;;;;5021221;28;20144;-68
2023/05/24 07:30:19;;;;;;;4.15;3.75;;;;;;;;;;5021179;28;20437;-69
2023/05/24 07:32:46;;;;;;;4.28;3.88;;;;;;;;;;5018406;28;20487;-69
2023/05/24 07:35:15;;;;;;;5.90;3.92;;;;;;;;;;5021204;28;20064;-69
2023/05/24 07:37:41;;;;;;;4.20;3.80;;;;;;;;;;5020713;28;20503;-69
2023/05/24 07:40:10;;;;;;;3.97;3.65;;;;;;;;;;5035966;28;20067;-69
2023/05/24 07:42:39;;;;;;;4.07;3.60;;;;;;;;;;5010937;28;20195;-69
2023/05/24 07:45:06;;;;;;;4.13;3.78;;;;;;;;;;5020533;28;20057;-69
2023/05/24 07:47:31;;;;;;;4.10;3.70;;;;;;;;;;5013378;28;20052;-68
2023/05/24 07:49:56;;;;;;;3.65;3.30;;;;;;;;;;5020475;28;20045;-69
2023/05/24 07:52:23;;;;;;;4.20;3.65;;;;;;;;;;5015575;28;21080;-69
2023/05/24 07:54:48;;;;;;;4.97;3.50;;;;;;;;;;5019910;28;20399;-69
2023/05/24 07:57:14;;;;;;;4.35;3.95;;;;;;;;;;5020476;28;20564;-69
2023/05/24 07:59:39;;;;;;;6.22;3.65;;;;;;;;;;5020150;28;20809;-68
2023/05/24 08:02:05;;;;;;;4.28;3.88;;;;;;;;;;5020665;28;20094;-69
2023/05/24 08:04:32;;;;;;;4.93;3.42;;;;;;;;;;5018139;28;20564;-69
2023/05/24 08:07:00;;;;;;;10.52;3.70;;;;;;;;;;5018034;28;20084;-68
2023/05/24 08:09:26;;;;;;;4.75;3.85;;;;;;;;;;5020109;28;20052;-70
2023/05/24 08:11:52;;;;;;;5.32;3.67;;;;;;;;;;5020321;28;20053;-70
2023/05/24 08:14:17;;;;;;;4.55;3.17;;;;;;;;;;5020549;28;20050;-70
2023/05/24 08:16:42;;;;;;;3.78;2.85;;;;;;;;;;5018767;28;20076;-70
2023/05/24 08:19:08;;;;;;;5.55;3.20;;;;;;;;;;5020861;28;20049;-69
2023/05/24 08:21:33;;;;;;;5.70;3.30;;;;;;;;;;5020369;28;20073;-70
2023/05/24 08:23:59;;;;;;;3.53;3.20;;;;;;;;;;5020351;28;20049;-70
2023/05/24 08:26:25;;;;;;;4.18;3.10;;;;;;;;;;5019251;28;20058;-69
2023/05/24 08:28:51;;;;;;;4.85;2.42;;;;;;;;;;5020468;28;20065;-70
2023/05/24 08:31:16;;;;;;;2.90;2.60;;;;;;;;;;5020462;28;20041;-69
2023/05/24 08:33:42;;;;;;;2.92;2.63;;;;;;;;;;5019736;28;20095;-70
2023/05/24 08:36:07;;;;;;;3.35;2.97;;;;;;;;;;5020618;28;20091;-70
2023/05/24 08:38:33;;;;;;;3.53;3.22;;;;;;;;;;5018545;28;20129;-69
2023/05/24 08:40:59;;;;;;;3.25;2.70;;;;;;;;;;5020546;28;20107;-69
2023/05/24 08:43:25;;;;;;;3.10;2.80;;;;;;;;;;5019402;28;20041;-70
2023/05/24 08:45:51;;;;;;;4.18;2.80;;;;;;;;;;5019993;28;20487;-69
2023/05/24 08:48:17;;;;;;;4.68;2.70;;;;;;;;;;5019529;28;20144;-69
2023/05/24 08:50:43;;;;;;;3.60;3.08;;;;;;;;;;5020106;28;20140;-69
2023/05/24 08:53:10;;;;;;;3.20;2.90;;;;;;;;;;5020397;28;20054;-70
2023/05/24 08:55:36;;;;;;;3.67;3.38;;;;;;;;;;5019475;28;20423;-70
2023/05/24 08:58:03;;;;;;;5.70;3.20;;;;;;;;;;5020777;28;20044;-69
2023/05/24 09:00:29;;;;;;;3.55;3.25;;;;;;;;;;5017244;28;20112;-70
2023/05/24 09:02:56;;;;;;;3.13;2.83;;;;;;;;;;5013753;28;20053;-69
2023/05/24 09:05:21;;;;;;;4.03;3.05;;;;;;;;;;5024247;28;20049;-69
2023/05/24 09:07:48;;;;;;;4.93;2.78;;;;;;;;;;5019191;28;20045;-69
2023/05/24 09:10:14;;;;;;;3.63;3.20;;;;;;;;;;5023373;28;20053;-68
2023/05/24 09:12:44;;;;;;;4.05;3.45;;;;;;;;;;5021324;28;20075;-70
2023/05/24 09:15:10;;;;;;;3.83;3.42;;;;;;;;;;5022552;28;20115;-70
2023/05/24 09:17:37;;;;;;;3.67;3.22;;;;;;;;;;5022849;28;20049;-69
2023/05/24 09:20:05;;;;;;;8.38;3.47;;;;;;;;;;5024195;28;20045;-69
2023/05/24 09:22:32;;;;;;;8.63;3.88;;;;;;;;;;5022991;28;20065;-69
2023/05/24 09:25:01;;;;;;;4.53;3.78;;;;;;;;;;5023358;28;20049;-68
2023/05/24 09:27:27;;;;;;;3.95;3.60;;;;;;;;;;5023216;28;20080;-69
2023/05/24 09:29:54;;;;;;;4.45;3.50;;;;;;;;;;5024199;28;20057;-70
2023/05/24 09:32:23;;;;;;;5.35;3.70;;;;;;;;;;5021624;28;20077;-69
2023/05/24 09:34:51;;;;;;;7.65;3.33;;;;;;;;;;5015862;28;20053;-69
2023/05/24 09:37:18;;;;;;;3.83;3.40;;;;;;;;;;5021516;28;20060;-69
2023/05/24 09:39:46;;;;;;;4.60;3.45;;;;;;;;;;5023137;28;20041;-69
2023/05/24 09:42:19;;;;;;;4.00;3.45;;;;;;;;;;5022405;28;20498;-69
2023/05/24 09:44:48;;;;;;;4.03;3.50;;;;;;;;;;5017842;28;20046;-68
2023/05/24 09:47:14;;;;;;;4.75;3.33;;;;;;;;;;5018971;28;20073;-69
2023/05/24 09:49:40;;;;;;;7.85;3.78;;;;;;;;;;5017123;28;20089;-68
2023/05/24 09:52:06;;;;;;;5.57;4.25;;;;;;;;;;5017062;28;20064;-67
2023/05/24 09:54:32;;;;;;;4.22;3.83;;;;;;;;;;5021101;28;20168;-68
2023/05/24 09:57:03;;;;;;;6.82;4.75;;;;;;;;;;5022977;28;20143;-68
2023/05/24 09:59:31;;;;;;;4.72;3.80;;;;;;;;;;5022406;28;20053;-68
2023/05/24 10:02:09;;;;;;;11.52;4.15;;;;;;;;;;5023049;28;20046;-68
2023/05/24 10:04:34;;;;;;;8.45;5.45;;;;;;;;;;5011911;28;20611;-69
2023/05/24 10:07:01;;;;;;;5.10;4.40;;;;;;;;;;5017709;28;20077;-68
2023/05/24 10:09:32;;;;;;;8.05;4.43;;;;;;;;;;5020345;28;20671;-68
2023/05/24 10:12:03;;;;;;;5.45;4.63;;;;;;;;;;5020835;28;20050;-69
2023/05/24 10:14:32;;;;;;;7.38;5.10;;;;;;;;;;5021324;28;20054;-68
2023/05/24 10:16:58;;;;;;;6.30;5.00;;;;;;;;;;5020382;28;20045;-68
2023/05/24 10:19:24;;;;;;;7.75;5.68;;;;;;;;;;5014733;28;20136;-68
2023/05/24 10:21:51;;;;;;;6.65;5.75;;;;;;;;;;5018616;28;20148;-69
2023/05/24 10:24:22;;;;;;;8.25;5.80;;;;;;;;;;5021204;28;20056;-68
2023/05/24 10:26:49;;;;;;;9.25;6.07;;;;;;;;;;5011102;28;20064;-69
2023/05/24 10:29:33;;;;;;;6.80;5.78;;;;;;;;;;5021843;28;20041;-68
2023/05/24 10:31:59;;;;;;;6.68;5.97;;;;;;;;;;5019470;28;20076;-68
2023/05/24 10:34:25;;;;;;;8.50;6.35;;;;;;;;;;5014849;28;20391;-69
2023/05/24 10:36:51;;;;;;;9.52;5.63;;;;;;;;;;5020658;28;20041;-69
2023/05/24 10:39:20;;;;;;;9.43;5.35;;;;;;;;;;5014940;28;20065;-68
2023/05/24 10:41:45;;;;;;;7.25;6.05;;;;;;;;;;5016304;28;20124;-68
2023/05/24 10:44:12;;;;;;;7.63;6.00;;;;;;;;;;5022141;28;20662;-69
2023/05/24 10:47:12;;;;;;;7.82;6.68;;;;;;;;;;5022363;28;20041;-68
2023/05/24 10:49:53;;;;;;;8.38;6.32;;;;;;;;;;5020911;28;20332;-69
2023/05/24 10:52:19;;;;;;;9.30;7.20;;;;;;;;;;5021662;28;20414;-68
2023/05/24 10:55:08;;;;;;;8.90;6.28;;;;;;;;;;5022232;28;20509;-69
2023/05/24 10:57:34;;;;;;;9.35;5.88;;;;;;;;;;5021634;28;20387;-70
2023/05/24 11:00:24;;;;;;;9.15;6.50;;;;;;;;;;5022221;28;20103;-70
2023/05/24 11:03:00;;;;;;;9.48;6.38;;;;;;;;;;5021666;28;20041;-70
2023/05/24 11:05:48;;;;;;;10.52;6.60;;;;;;;;;;5021088;28;20037;-71
2023/05/24 11:08:21;;;;;;;8.50;6.05;;;;;;;;;;5021694;28;20636;-70
2023/05/24 11:10:47;;;;;;;7.45;5.78;;;;;;;;;;5021991;28;20131;-70
2023/05/24 11:13:12;;;;;;;11.07;6.40;;;;;;;;;;5018407;28;20132;-69
2023/05/24 11:15:38;;;;;;;11.63;6.65;;;;;;;;;;5021249;28;20060;-68
2023/05/24 11:18:12;;;;;;;13.57;6.30;;;;;;;;;;5021512;28;20501;-70
2023/05/24 11:20:41;;;;;;;8.68;6.25;;;;;;;;;;5016628;28;20052;-70
2023/05/24 11:23:10;;;;;;;9.40;6.43;;;;;;;;;;5016557;28;20046;-69
2023/05/24 11:25:39;;;;;;;10.20;6.53;;;;;;;;;;5010277;28;20034;-69
2023/05/24 11:28:09;;;;;;;8.80;6.10;;;;;;;;;;5018831;28;20157;-69
2023/05/24 11:30:42;;;;;;;12.02;7.10;;;;;;;;;;5016303;28;20045;-70
2023/05/24 11:33:18;;;;;;;8.38;6.13;;;;;;;;;;5014414;28;20510;-69
2023/05/24 11:35:49;;;;;;;7.85;6.28;;;;;;;;;;5016069;28;20077;-69
2023/05/24 11:38:15;;;;;;;10.60;6.43;;;;;;;;;;5013121;28;20426;-69
2023/05/24 11:40:45;;;;;;;13.00;6.25;;;;;;;;;;5016697;28;20045;-69
2023/05/24 11:43:17;;;;;;;9.68;6.05;;;;;;;;;;5013056;28;20204;-69
2023/05/24 11:45:49;;;;;;;10.07;6.10;;;;;;;;;;5017851;28;20159;-69
2023/05/24 11:48:15;;;;;;;9.55;5.40;;;;;;;;;;5019183;28;20091;-69
2023/05/24 11:50:43;;;;;;;13.98;5.57;;;;;;;;;;5016013;28;20049;-69
2023/05/24 11:53:12;;;;;;;10.43;5.78;;;;;;;;;;5018559;28;20533;-68
2023/05/24 11:55:39;;;;;;;10.38;5.45;;;;;;;;;;5014012;28;20119;-69
2023/05/24 11:58:28;;;;;;;12.00;5.75;;;;;;;;;;5018684;28;20506;-69
2023/05/24 12:00:53;;;;;;;9.23;6.07;;;;;;;;;;5018967;28;20407;-69
2023/05/24 12:03:20;;;;;;;10.07;5.03;;;;;;;;;;5018730;28;20045;-69
2023/05/24 12:05:46;;;;;;;9.43;5.97;;;;;;;;;;5016734;28;20525;-69
2023/05/24 12:08:14;;;;;;;10.77;6.00;;;;;;;;;;5005163;28;20071;-69
2023/05/24 12:10:41;;;;;;;8.80;5.53;;;;;;;;;;5018647;28;20057;-70
2023/05/24 12:13:22;;;;;;;10.20;5.65;;;;;;;;;;5035473;28;20502;-69
2023/05/24 12:15:53;;;;;;;12.85;6.38;;;;;;;;;;5014975;28;20450;-69
2023/05/24 12:18:22;;;;;;;15.20;6.00;;;;;;;;;;5012277;28;20046;-69
2023/05/24 12:20:48;;;;;;;9.77;5.95;;;;;;;;;;5020327;28;20053;-70
2023/05/24 12:23:15;;;;;;;10.63;5.80;;;;;;;;;;5016885;28;20411;-69
2023/05/24 12:25:41;;;;;;;14.95;6.25;;;;;;;;;;5014235;28;20057;-69
2023/05/24 12:28:06;;;;;;;12.05;6.25;;;;;;;;;;5032683;28;20059;-69
2023/05/24 12:30:32;;;;;;;10.27;6.65;;;;;;;;;;5015838;28;20040;-69
2023/05/24 12:32:57;;;;;;;9.63;6.10;;;;;;;;;;5018389;28;20569;-69
2023/05/24 12:35:23;;;;;;;16.80;6.28;;;;;;;;;;5014045;28;20104;-68
2023/05/24 12:37:48;;;;;;;12.00;6.35;;;;;;;;;;5021730;28;20045;-70
2023/05/24 12:40:16;;;;;;;12.20;5.80;;;;;;;;;;5023182;28;20136;-68
2023/05/24 12:42:44;;;;;;;10.65;5.93;;;;;;;;;;5020793;28;20548;-69
2023/05/24 12:45:09;;;;;;;14.15;6.10;;;;;;;;;;5026932;28;20041;-69
2023/05/24 12:47:35;;;;;;;8.70;5.85;;;;;;;;;;5021640;28;20044;-70
2023/05/24 12:50:00;;;;;;;9.45;6.10;;;;;;;;;;5020227;28;20444;-68
2023/05/24 12:52:26;;;;;;;13.80;5.88;;;;;;;;;;5017190;28;20499;-68
2023/05/24 12:54:51;;;;;;;10.52;5.55;;;;;;;;;;5026218;28;20077;-69
2023/05/24 12:57:17;;;;;;;12.70;5.40;;;;;;;;;;5016708;28;20204;-69
2023/05/24 12:59:43;;;;;;;12.18;5.38;;;;;;;;;;5017308;28;20136;-69
2023/05/24 13:02:09;;;;;;;11.52;5.45;;;;;;;;;;5024041;28;20057;-69
2023/05/24 13:04:35;;;;;;;10.57;5.15;;;;;;;;;;5018033;28;20128;-69
2023/05/24 13:07:01;;;;;;;9.73;5.40;;;;;;;;;;5024790;28;20124;-69
2023/05/24 13:09:27;;;;;;;11.05;5.53;;;;;;;;;;5017484;28;20065;-69
2023/05/24 13:11:54;;;;;;;13.68;5.43;;;;;;;;;;5025372;28;20060;-70
2023/05/24 13:14:19;;;;;;;8.20;5.82;;;;;;;;;;5021980;28;20053;-69
2023/05/24 13:16:45;;;;;;;8.02;5.05;;;;;;;;;;5025207;28;20064;-69
2023/05/24 13:19:11;;;;;;;11.52;5.90;;;;;;;;;;5023452;28;20045;-70
2023/05/24 13:21:36;;;;;;;12.27;5.32;;;;;;;;;;5024723;28;20041;-69
2023/05/24 13:24:02;;;;;;;8.80;5.63;;;;;;;;;;5020796;28;20045;-69
2023/05/24 13:26:29;;;;;;;12.20;5.60;;;;;;;;;;5018974;28;20046;-68
2023/05/24 13:28:54;;;;;;;9.48;5.55;;;;;;;;;;5020766;28;20085;-70
2023/05/24 13:31:20;;;;;;;11.88;5.50;;;;;;;;;;5023156;28;20555;-68
2023/05/24 13:33:45;;;;;;;12.60;5.43;;;;;;;;;;5021588;28;20061;-69
2023/05/24 13:36:11;;;;;;;15.50;5.78;;;;;;;;;;5014258;28;20112;-70
2023/05/24 13:38:37;;;;;;;7.95;5.38;;;;;;;;;;5026477;28;20045;-68
2023/05/24 13:41:02;;;;;;;11.15;5.38;;;;;;;;;;5023402;28;20033;-69
2023/05/24 13:43:28;;;;;;;9.00;5.43;;;;;;;;;;5018898;28;20038;-71
2023/05/24 13:45:53;;;;;;;10.73;5.15;;;;;;;;;;5022113;28;20053;-69
2023/05/24 13:48:19;;;;;;;10.38;5.20;;;;;;;;;;5026152;28;20141;-69
2023/05/24 13:50:44;;;;;;;9.13;5.32;;;;;;;;;;5018798;28;20073;-70
2023/05/24 13:53:09;;;;;;;10.48;4.55;;;;;;;;;;5018530;28;20124;-68
2023/05/24 13:55:37;;;;;;;8.02;4.43;;;;;;;;;;5015498;28;20115;-69
2023/05/24 13:58:03;;;;;;;7.55;4.70;;;;;;;;;;5017929;28;20647;-69
2023/05/24 14:00:29;;;;;;;14.88;5.38;;;;;;;;;;5018948;28;20049;-69
2023/05/24 14:02:55;;;;;;;13.55;5.20;;;;;;;;;;5022384;28;20056;-69
2023/05/24 14:05:21;;;;;;;7.93;4.78;;;;;;;;;;5022956;28;20076;-70
2023/05/24 14:07:47;;;;;;;11.65;5.47;;;;;;;;;;5018318;28;20057;-69
2023/05/24 14:10:12;;;;;;;9.27;5.22;;;;;;;;;;5014629;28;20102;-69
2023/05/24 14:12:38;;;;;;;7.07;4.47;;;;;;;;;;5021245;28;20049;-69
2023/05/24 14:15:05;;;;;;;9.57;5.18;;;;;;;;;;5016210;28;20049;-69
2023/05/24 14:17:31;;;;;;;10.93;5.55;;;;;;;;;;5015870;28;20033;-70
2023/05/24 14:19:57;;;;;;;11.40;5.15;;;;;;;;;;5020505;28;20041;-66
2023/05/24 14:22:24;;;;;;;8.27;5.20;;;;;;;;;;5015146;28;20045;-70
2023/05/24 14:24:50;;;;;;;10.45;6.63;;;;;;;;;;5019349;28;20051;-69
2023/05/24 14:27:15;;;;;;;8.18;5.82;;;;;;;;;;5022460;28;20410;-69
2023/05/24 14:29:41;;;;;;;9.98;5.47;;;;;;;;;;5016990;28;20103;-69
2023/05/24 14:32:06;;;;;;;13.45;7.60;;;;;;;;;;5022023;28;20053;-67
2023/05/24 14:34:32;;;;;;;10.98;7.53;;;;;;;;;;5022003;28;20045;-69
2023/05/24 14:36:57;;;;;;;8.73;5.63;;;;;;;;;;5021480;28;20053;-70
2023/05/24 14:39:23;;;;;;;9.75;5.07;;;;;;;;;;5016744;28;20049;-69
2023/05/24 14:41:48;;;;;;;17.88;5.47;;;;;;;;;;5019591;28;20084;-68